Weather History for K2C8 - October, 2011

Change the Weather History Date:

Thursday, October 6, 2011

  Actual Average (KGAF) Record (KGAF)
Temperature  
Mean Temperature 70 °F -  
Max Temperature 80 °F 60 °F 83 °F (1961)
Min Temperature 59 °F 35 °F 20 °F (1953)
Cooling Degree Days 4    
Growing Degree Days 20 (Base 50)    
Moisture  
Dew Point 44 °F    
Average Humidity 39    
Maximum Humidity 51    
Minimum Humidity 24    
Precipitation  
Precipitation 0.00 in - - ()
Sea Level Pressure  
Sea Level Pressure 29.78 in    
Wind  
Wind Speed 14 mph (SSE)    
Max Wind Speed 30 mph    
Max Gust Speed 46 mph    
Visibility 10 miles    
Events Rain    
Averages and records for this station are not official NWS values.
T = Trace of Precipitation, MM = Missing Value Source: NWS Daily Summary

Daily Weather History Graph

Daily Weather History Graph

Search for Another Location

Airport or City:

Trip Planner

Search our weather history database for the weather conditions in past years. The results will help you decide how hot, cold, wet, or windy it might be!

Date:

Astronomy

Oct. 06, 2011 Rise Set
Actual Time 7:37 AM CDT 6:59 PM CDT
Civil Twilight 7:05 AM CDT 7:30 PM CDT
Nautical Twilight 6:29 AM CDT 8:07 PM CDT
Astronomical Twilight 5:52 AM CDT 8:44 PM CDT
Moon 4:34 PM CDT (10/6) 2:02 AM CDT (10/6)
Length of Visible Light 12h 25m
Length of Day
11h 22m
Waxing Gibbous, 75% of the Moon is Illuminated
Oct 6
Waxing Gibbous
Oct 11
Full
Oct 19
Last Quarter
Oct 26
New
Nov 2
First Quarter

Hourly Weather History & Observations

Time (CDT) Temp. Dew Point Humidity Pressure Visibility Wind Dir Wind Speed Gust Speed Precip Events Conditions
12:15 AM 68.0 °F 46.4 °F 46% 29.81 in 10.0 mi SSE 12.7 mph 18.4 mph N/A   Clear
12:35 AM 68.0 °F 46.4 °F 46% 29.82 in 10.0 mi SSE 11.5 mph 18.4 mph N/A   Clear
1:15 AM 68.0 °F 46.4 °F 46% 29.81 in 10.0 mi SSE 12.7 mph 18.4 mph N/A   Clear
1:35 AM 68.0 °F 46.4 °F 46% 29.82 in 10.0 mi SSE 12.7 mph 19.6 mph N/A   Clear
1:55 AM 68.0 °F 44.6 °F 43% 29.82 in 10.0 mi SSE 12.7 mph 18.4 mph N/A   Clear
2:15 AM 66.2 °F 44.6 °F 46% 29.82 in 10.0 mi SSE 13.8 mph 18.4 mph N/A   Clear
2:35 AM 66.2 °F 44.6 °F 46% 29.82 in 10.0 mi SSE 11.5 mph 17.3 mph N/A   Clear
2:55 AM 64.4 °F 44.6 °F 49% 29.82 in 10.0 mi SSE 9.2 mph - N/A   Clear
3:15 AM 64.4 °F 44.6 °F 49% 29.82 in 10.0 mi SSE 11.5 mph - N/A   Clear
3:35 AM 64.4 °F 44.6 °F 49% 29.82 in 10.0 mi SSE 11.5 mph 17.3 mph N/A   Clear
3:55 AM 64.4 °F 42.8 °F 45% 29.82 in 10.0 mi SSE 12.7 mph 16.1 mph N/A   Clear
4:15 AM 64.4 °F 42.8 °F 45% 29.82 in 10.0 mi SSE 10.4 mph 17.3 mph N/A   Clear
4:35 AM 62.6 °F 42.8 °F 48% 29.81 in 10.0 mi SSE 11.5 mph - N/A   Clear
4:55 AM 62.6 °F 42.8 °F 48% 29.81 in 10.0 mi SSE 9.2 mph 18.4 mph N/A   Clear
5:15 AM 62.6 °F 41.0 °F 45% 29.81 in 10.0 mi SSE 9.2 mph - N/A   Clear
5:35 AM 62.6 °F 42.8 °F 48% 29.81 in 10.0 mi SSE 10.4 mph - N/A   Clear
5:55 AM 62.6 °F 41.0 °F 45% 29.82 in 10.0 mi SSE 10.4 mph 16.1 mph N/A   Clear
6:15 AM 62.6 °F 41.0 °F 45% 29.82 in 10.0 mi SSE 9.2 mph - N/A   Clear
6:35 AM 60.8 °F 41.0 °F 48% 29.82 in 10.0 mi SSE 9.2 mph - N/A   Clear
6:55 AM 60.8 °F 41.0 °F 48% 29.82 in 10.0 mi SSE 11.5 mph - N/A   Clear
7:15 AM 60.8 °F 41.0 °F 48% 29.82 in 10.0 mi SSE 10.4 mph 17.3 mph N/A   Clear
7:35 AM 60.8 °F 41.0 °F 48% 29.82 in 8.0 mi SSE 10.4 mph 17.3 mph N/A   Clear
7:55 AM 59.0 °F 41.0 °F 51% 29.82 in 10.0 mi SSE 9.2 mph 16.1 mph N/A   Clear
8:15 AM 59.0 °F 41.0 °F 51% 29.82 in 10.0 mi SSE 9.2 mph 16.1 mph N/A   Clear
8:55 AM 62.6 °F 42.8 °F 48% 29.82 in 10.0 mi SSE 9.2 mph 16.1 mph N/A   Clear
9:15 AM 62.6 °F 42.8 °F 48% 29.82 in 10.0 mi SSE 12.7 mph 18.4 mph N/A   Clear
9:35 AM 64.4 °F 42.8 °F 45% 29.82 in 10.0 mi SSE 15.0 mph 23.0 mph N/A   Clear
9:55 AM 66.2 °F 44.6 °F 46% 29.82 in 10.0 mi SSE 13.8 mph 19.6 mph N/A   Clear
10:15 AM 68.0 °F 44.6 °F 43% 29.81 in 10.0 mi South 20.7 mph 25.3 mph N/A   Clear
10:35 AM 68.0 °F 44.6 °F 43% 29.82 in 10.0 mi South 19.6 mph 28.8 mph N/A   Clear
10:55 AM 71.6 °F 44.6 °F 38% 29.81 in 10.0 mi SSE 19.6 mph 26.5 mph N/A   Clear
11:15 AM 71.6 °F 46.4 °F 41% 29.81 in 10.0 mi South 19.6 mph 28.8 mph N/A   Clear
1:15 PM 77.0 °F 46.4 °F 34% 29.78 in 10.0 mi SSE 20.7 mph 28.8 mph N/A   Clear
1:35 PM 80.6 °F 46.4 °F 30% 29.77 in 10.0 mi South 26.5 mph 39.1 mph N/A Rain Light Rain
1:55 PM 80.6 °F 46.4 °F 30% 29.76 in 9.0 mi South 29.9 mph 36.8 mph N/A   Clear
2:15 PM 80.6 °F 44.6 °F 28% 29.76 in 9.0 mi SSE 23.0 mph 46.0 mph N/A Rain Light Rain
2:35 PM 80.6 °F 44.6 °F 28% 29.75 in 10.0 mi South 28.8 mph 42.6 mph N/A Rain Light Rain
3:15 PM 80.6 °F 41.0 °F 24% 29.74 in 10.0 mi South 29.9 mph 40.3 mph N/A Rain Light Rain
3:35 PM 80.6 °F 42.8 °F 26% 29.75 in 10.0 mi South 24.2 mph 39.1 mph N/A Rain Light Rain
3:55 PM 80.6 °F 42.8 °F 26% 29.74 in 10.0 mi SSE 24.2 mph 36.8 mph N/A   Clear
4:15 PM 80.6 °F 44.6 °F 28% 29.74 in 10.0 mi SSE 21.9 mph 31.1 mph N/A   Clear
4:35 PM 78.8 °F 42.8 °F 28% 29.74 in 10.0 mi SSE 20.7 mph 33.4 mph N/A   Clear
4:55 PM 80.6 °F 44.6 °F 28% 29.74 in 10.0 mi SSE 13.8 mph 26.5 mph N/A   Clear
5:15 PM 78.8 °F 42.8 °F 28% 29.73 in 10.0 mi SSE 19.6 mph 33.4 mph N/A   Clear
5:35 PM 77.0 °F 42.8 °F 29% 29.73 in 10.0 mi SSE 20.7 mph 35.7 mph N/A   Clear
5:55 PM 77.0 °F 42.8 °F 29% 29.74 in 10.0 mi SSE 17.3 mph 29.9 mph N/A   Clear
6:15 PM 77.0 °F 44.6 °F 32% 29.74 in 10.0 mi SSE 15.0 mph 23.0 mph N/A   Clear
6:35 PM 75.2 °F 44.6 °F 34% 29.73 in 10.0 mi SSE 16.1 mph 24.2 mph N/A   Clear
6:55 PM 75.2 °F 44.6 °F 34% 29.73 in 10.0 mi SSE 13.8 mph 25.3 mph N/A   Clear
7:15 PM 75.2 °F 44.6 °F 34% 29.73 in 10.0 mi SE 13.8 mph 24.2 mph N/A   Mostly Cloudy
7:35 PM 75.2 °F 44.6 °F 34% 29.74 in 10.0 mi SE 11.5 mph 23.0 mph N/A   Mostly Cloudy
7:55 PM 75.2 °F 44.6 °F 34% 29.73 in 10.0 mi SE 12.7 mph 20.7 mph N/A   Scattered Clouds
8:15 PM 75.2 °F 44.6 °F 34% 29.73 in 10.0 mi SE 10.4 mph 20.7 mph N/A   Mostly Cloudy
8:35 PM 73.4 °F 44.6 °F 36% 29.73 in 10.0 mi SE 12.7 mph 20.7 mph N/A   Mostly Cloudy
9:15 PM 73.4 °F 44.6 °F 36% 29.73 in 10.0 mi SE 13.8 mph 20.7 mph N/A   Overcast
9:35 PM 73.4 °F 44.6 °F 36% 29.72 in 10.0 mi SE 12.7 mph 24.2 mph N/A   Mostly Cloudy
9:55 PM 73.4 °F 44.6 °F 36% 29.72 in 10.0 mi SE 12.7 mph 18.4 mph N/A   Mostly Cloudy
10:15 PM 73.4 °F 42.8 °F 33% 29.71 in 10.0 mi SE 11.5 mph 20.7 mph N/A   Overcast
10:35 PM 71.6 °F 42.8 °F 35% 29.71 in 10.0 mi SE 11.5 mph 19.6 mph N/A   Mostly Cloudy
10:55 PM 71.6 °F 41.0 °F 33% 29.71 in 10.0 mi SSE 12.7 mph 21.9 mph N/A   Scattered Clouds
11:15 PM 71.6 °F 41.0 °F 33% 29.70 in 10.0 mi SSE 11.5 mph 21.9 mph N/A   Partly Cloudy
11:35 PM 71.6 °F 41.0 °F 33% 29.70 in 10.0 mi SSE 15.0 mph 23.0 mph N/A   Clear
11:55 PM 71.6 °F 41.0 °F 33% 29.69 in 10.0 mi SSE 17.3 mph 27.6 mph N/A   Clear